Airport View

Enter AWOS ICAO identifier for current METAR.

ex. KFNL

KFWB 200030Z AUTO 00000KT 1/4SM FG OVC002 11/11 A3008 RMK AO2

20 Oct 2020 00:39

Frequency: 119.725

Phone: 417-272-3922

Other Area AWOS: KBBG - KHRO - KHFJ - KSGF

TAF KBBG 192328Z 2000/2024 00000KT P6SM BKN004 OVC020 FM200300 00000KT 2SM BR OVC003 FM201400 VRB03KT 4SM BR OVC004 FM201600 16005KT P6SM BKN010